Stoner, Colorado
Current Conditions -  °F | °C
As of 4:53 PM on Sunday 23 Nov 2014 (Local Time) from KCEZ Reporting Station
Scattered Clouds Scattered Clouds  
Wind Chill: 23°   Ceiling: Unl
Heat Index: 33°   Visibility: 10mi
Dew Point: 20°   Wind: 15mph
Humidity: 59%   Direction: 10°N
Pressure: 30.04"   Gusts: 24mph
Location:  37.5429°N, 108.35°W
Report Text: KCEZ 232353Z AUTO 01013G21KT 10SM SCT060 01/M07 A3004 RMK AO2 SLP164 T00061067 10056 20006 53019
Loading
Personal Weather Stations






























Interactive Weather Map New forecast layout! Learn more

10-Day Weather Forecast

Advertisements
Track Severe Weather on mobile